KJXN/JXN METAR and TAF weather

Enter ICAO airport designator
Station Type Date Time Source
KJXN METAR 2019/02/22 21:56 UTC NOAA

KJXN 222156Z 10005KT 10SM CLR 03/M05 A3037 RMK AO2 SLP297 T00331050


Station Type Date Time Source
KJXN Decoded METAR 2019/02/22 21:56 UTC NOAA

JACKSON COUNTY-REYNOLDS, MI, United States (KJXN) 42-16N 084-28W
Feb 22, 2019 - 04:56 PM EST / 2019.02.22 2156 UTC
Wind: from the E (100 degrees) at 6 MPH (5 KT):0
Visibility: 10 mile(s):0
Sky conditions: clear
Temperature: 37.9 F (3.3 C)
Dew Point: 23.0 F (-5.0 C)
Relative Humidity: 54%
Pressure (altimeter): 30.37 in. Hg (1028 hPa)
ob: KJXN 222156Z 10005KT 10SM CLR 03/M05 A3037 RMK AO2 SLP297 T00331050
cycle: 22

Station Type Date Time Source
KJXN TAF 2019/02/22 18:33 UTC NOAA

TAF KJXN 221730Z 2218/2318 10004KT P6SM SCT200
FM230100 08005KT P6SM SCT150
FM230800 09006KT P6SM OVC080
FM231500 09011KT 5SM BR OVC040


Example: see airport list